createdAt,value
2023-05-18T00:00:58.141Z,57.95
2023-05-18T00:03:32.656Z,58.01
2023-05-18T00:06:13.501Z,57.80
2023-05-18T00:09:04.350Z,57.98
2023-05-18T00:11:41.793Z,58.24
2023-05-18T00:14:18.113Z,58.38
2023-05-18T00:16:58.351Z,58.46
2023-05-18T00:19:34.018Z,58.63
2023-05-18T00:22:08.127Z,58.78
2023-05-18T00:24:56.415Z,58.92
2023-05-18T00:27:32.240Z,58.90
2023-05-18T00:30:06.708Z,58.96
2023-05-18T00:32:42.457Z,59.15
2023-05-18T00:35:29.037Z,58.91
2023-05-18T00:38:02.820Z,58.99
2023-05-18T00:40:33.848Z,59.16
2023-05-18T00:43:07.863Z,59.23
2023-05-18T00:45:43.385Z,59.39
2023-05-18T00:48:16.482Z,59.27
2023-05-18T00:50:47.421Z,59.20
2023-05-18T00:53:26.357Z,59.19
2023-05-18T00:56:01.366Z,59.46
2023-05-18T00:58:34.479Z,59.42
2023-05-18T01:01:17.940Z,59.55
2023-05-18T01:04:08.814Z,59.45
2023-05-18T01:07:17.228Z,59.51
2023-05-18T01:09:51.172Z,59.87
2023-05-18T01:12:45.155Z,60.15
2023-05-18T01:15:40.384Z,60.12
2023-05-18T01:18:57.225Z,60.16
2023-05-18T01:22:04.132Z,60.02
2023-05-18T01:24:56.898Z,60.06
2023-05-18T01:27:29.570Z,59.96
2023-05-18T01:30:00.945Z,59.97
2023-05-18T01:32:43.144Z,59.89
2023-05-18T01:35:22.665Z,59.93
2023-05-18T01:37:53.937Z,60.11
2023-05-18T01:40:26.796Z,60.24
2023-05-18T01:43:15.760Z,60.29
2023-05-18T01:46:00.269Z,60.37
2023-05-18T01:48:43.081Z,60.59
2023-05-18T01:51:20.837Z,60.81
2023-05-18T01:54:08.658Z,60.79
2023-05-18T01:56:47.911Z,60.95
2023-05-18T01:59:26.646Z,61.03
2023-05-18T02:02:10.544Z,61.04
2023-05-18T02:04:53.323Z,61.58
2023-05-18T02:07:46.224Z,61.51
2023-05-18T02:10:31.682Z,61.56
2023-05-18T02:13:12.801Z,61.68
2023-05-18T02:15:56.537Z,61.58
2023-05-18T02:18:42.306Z,61.61
2023-05-18T02:21:26.283Z,61.79
2023-05-18T02:24:01.879Z,61.69
2023-05-18T02:26:41.807Z,61.80
2023-05-18T02:29:12.703Z,61.95
2023-05-18T02:31:46.989Z,62.37
2023-05-18T02:34:22.874Z,62.41
2023-05-18T02:37:08.126Z,62.57
2023-05-18T02:39:41.530Z,62.61
2023-05-18T02:42:14.168Z,62.60
2023-05-18T02:44:53.983Z,62.63
2023-05-18T02:47:48.363Z,62.92
2023-05-18T02:50:28.171Z,63.16
2023-05-18T02:53:16.039Z,63.04
2023-05-18T02:56:08.368Z,63.24
2023-05-18T02:58:53.543Z,63.34
2023-05-18T03:01:37.572Z,63.70
2023-05-18T03:04:19.047Z,63.69
2023-05-18T03:06:57.845Z,63.81
2023-05-18T03:09:36.531Z,64.07
2023-05-18T03:12:12.003Z,64.13
2023-05-18T03:14:53.120Z,64.18
2023-05-18T03:17:30.964Z,64.36
2023-05-18T03:20:07.682Z,64.46
2023-05-18T03:22:46.983Z,64.68
2023-05-18T03:25:29.772Z,64.69
2023-05-18T03:28:11.873Z,64.58
2023-05-18T03:30:46.078Z,64.69
2023-05-18T03:33:17.328Z,64.55
2023-05-18T03:35:52.873Z,64.50
2023-05-18T03:38:25.950Z,64.59
2023-05-18T03:41:11.858Z,64.36
2023-05-18T03:43:53.495Z,64.27
2023-05-18T03:46:29.332Z,64.28
2023-05-18T03:49:11.445Z,64.06
2023-05-18T03:51:49.823Z,64.31
2023-05-18T03:54:22.777Z,64.18
2023-05-18T03:56:58.689Z,64.15
2023-05-18T03:59:43.897Z,64.06
2023-05-18T04:02:19.315Z,64.03
2023-05-18T04:04:55.025Z,63.88
2023-05-18T04:07:35.388Z,63.75
2023-05-18T04:10:12.836Z,63.79
2023-05-18T04:12:50.571Z,63.69
2023-05-18T04:15:28.218Z,63.63
2023-05-18T04:18:14.245Z,63.40
2023-05-18T04:20:52.379Z,63.30
2023-05-18T04:23:30.264Z,63.42
2023-05-18T04:26:11.596Z,63.40
2023-05-18T04:29:06.197Z,63.31
2023-05-18T04:31:54.614Z,63.43
2023-05-18T04:34:26.962Z,63.17
2023-05-18T04:37:05.700Z,63.09
2023-05-18T04:39:45.132Z,63.12
2023-05-18T04:42:36.429Z,63.08
2023-05-18T04:45:20.124Z,62.90
2023-05-18T04:48:05.244Z,62.87
2023-05-18T04:50:45.683Z,63.22
2023-05-18T04:53:28.873Z,63.54
2023-05-18T04:56:11.168Z,63.47
2023-05-18T04:58:52.873Z,62.61
2023-05-18T05:01:32.030Z,61.85
2023-05-18T05:04:18.436Z,61.04
2023-05-18T05:06:55.137Z,60.44
2023-05-18T05:09:34.686Z,60.08
2023-05-18T05:12:12.609Z,59.72
2023-05-18T05:14:49.517Z,59.50
2023-05-18T05:17:25.702Z,59.49
2023-05-18T05:20:02.407Z,59.67
2023-05-18T05:22:34.108Z,59.50
2023-05-18T05:25:06.419Z,59.32
2023-05-18T05:28:01.627Z,59.41
2023-05-18T05:30:33.892Z,58.93
2023-05-18T05:33:09.710Z,58.68
2023-05-18T05:35:51.438Z,58.27
2023-05-18T05:38:33.809Z,57.69
2023-05-18T05:41:04.083Z,57.25
2023-05-18T05:44:00.012Z,56.92
2023-05-18T05:46:35.907Z,56.09
2023-05-18T05:49:24.661Z,54.75
2023-05-18T05:52:09.921Z,53.56
2023-05-18T05:55:09.785Z,52.10
2023-05-18T05:58:11.706Z,51.62
2023-05-18T06:00:44.169Z,50.74
2023-05-18T06:03:35.127Z,49.84
2023-05-18T06:06:30.976Z,49.51
2023-05-18T06:09:05.069Z,49.11
2023-05-18T06:11:42.392Z,49.37
2023-05-18T06:14:15.738Z,49.19
2023-05-18T06:17:07.109Z,49.06
2023-05-18T06:19:46.227Z,48.85
2023-05-18T06:22:19.078Z,48.54
2023-05-18T06:25:28.949Z,48.38
2023-05-18T06:28:18.793Z,48.34
2023-05-18T06:30:54.746Z,48.29
2023-05-18T06:33:41.163Z,48.51
2023-05-18T06:36:14.240Z,48.83
2023-05-18T06:38:59.598Z,48.76
2023-05-18T06:41:31.947Z,48.06
2023-05-18T06:44:07.051Z,47.44
2023-05-18T06:46:45.901Z,47.34
2023-05-18T06:49:27.891Z,46.42
2023-05-18T06:52:02.720Z,45.53
2023-05-18T06:54:33.553Z,45.25
2023-05-18T06:57:07.910Z,44.64
2023-05-18T06:59:40.882Z,44.05
2023-05-18T07:02:15.993Z,43.68
2023-05-18T07:04:47.315Z,43.23
2023-05-18T07:07:23.461Z,43.14
2023-05-18T07:09:58.726Z,43.41
2023-05-18T07:12:34.897Z,42.90
2023-05-18T07:15:22.800Z,42.99
2023-05-18T07:17:57.059Z,43.71
2023-05-18T07:20:29.470Z,43.87
2023-05-18T07:23:10.083Z,43.26
2023-05-18T07:25:49.587Z,43.23
2023-05-18T07:28:23.340Z,43.00
2023-05-18T07:30:59.685Z,42.56
2023-05-18T07:33:31.537Z,42.33
2023-05-18T07:36:10.084Z,42.74
2023-05-18T07:38:41.404Z,43.56
2023-05-18T07:41:12.927Z,42.81
2023-05-18T07:43:44.859Z,42.07
2023-05-18T07:46:17.649Z,41.51
2023-05-18T07:48:51.421Z,41.43
2023-05-18T07:51:21.609Z,41.49
2023-05-18T07:53:55.101Z,41.11
2023-05-18T07:56:26.285Z,40.69
2023-05-18T07:58:56.095Z,40.41
2023-05-18T08:01:30.544Z,40.14
2023-05-18T08:04:04.893Z,39.65
2023-05-18T08:06:37.294Z,39.14
2023-05-18T08:09:17.529Z,38.74
2023-05-18T08:11:47.716Z,39.21
2023-05-18T08:14:18.063Z,38.18
2023-05-18T08:16:59.215Z,37.76
2023-05-18T08:19:42.798Z,36.89
2023-05-18T08:22:13.164Z,36.25
2023-05-18T08:24:53.415Z,35.61
2023-05-18T08:27:38.115Z,35.39
2023-05-18T08:30:19.349Z,35.13
2023-05-18T08:32:49.537Z,35.46
2023-05-18T08:35:19.821Z,36.15
2023-05-18T08:37:51.120Z,35.45
2023-05-18T08:40:37.621Z,35.02
2023-05-18T08:43:23.334Z,34.47
2023-05-18T08:46:31.164Z,33.70
2023-05-18T08:49:09.780Z,33.04
2023-05-18T08:51:42.508Z,33.07
2023-05-18T08:54:16.133Z,33.65
2023-05-18T08:56:47.300Z,33.47
2023-05-18T08:59:23.599Z,33.11
2023-05-18T09:01:55.895Z,33.23
2023-05-18T09:04:29.962Z,32.82
2023-05-18T09:07:02.863Z,32.76
2023-05-18T09:09:45.587Z,32.71
2023-05-18T09:12:21.672Z,32.37
2023-05-18T09:15:00.645Z,31.33
2023-05-18T09:17:32.906Z,31.77
2023-05-18T09:20:06.110Z,31.71
2023-05-18T09:22:44.726Z,31.94
2023-05-18T09:25:19.960Z,31.94
2023-05-18T09:27:54.970Z,31.28
2023-05-18T09:30:40.205Z,31.62
2023-05-18T09:33:22.034Z,31.69
2023-05-18T09:35:52.357Z,31.75
2023-05-18T09:38:25.063Z,31.17
2023-05-18T09:40:54.578Z,31.38
2023-05-18T09:43:24.038Z,31.31
2023-05-18T09:45:53.460Z,31.14
2023-05-18T09:48:25.315Z,31.29
2023-05-18T09:50:55.009Z,30.62
2023-05-18T09:53:24.382Z,30.16
2023-05-18T09:55:53.896Z,30.26
2023-05-18T09:58:35.531Z,30.48
2023-05-18T10:01:08.352Z,30.79
2023-05-18T10:03:41.971Z,31.07
2023-05-18T10:06:20.292Z,30.89
2023-05-18T10:08:53.658Z,30.65
2023-05-18T10:11:24.051Z,30.32
2023-05-18T10:13:58.957Z,30.71
2023-05-18T10:16:29.818Z,31.04
2023-05-18T10:19:12.607Z,31.23
2023-05-18T10:21:44.760Z,31.72
2023-05-18T10:24:28.361Z,31.26
2023-05-18T10:27:01.752Z,30.95
2023-05-18T10:29:38.054Z,31.68
2023-05-18T10:32:24.640Z,32.37
2023-05-18T10:34:58.864Z,32.96
2023-05-18T10:37:31.404Z,33.67
2023-05-18T10:40:05.093Z,33.72
2023-05-18T10:42:38.272Z,33.39
2023-05-18T10:45:14.941Z,33.98
2023-05-18T10:47:49.143Z,34.44
2023-05-18T10:50:21.185Z,34.89
2023-05-18T10:52:59.067Z,35.77
2023-05-18T10:55:32.073Z,35.41
2023-05-18T10:58:16.987Z,35.25
2023-05-18T11:01:03.906Z,35.41
2023-05-18T11:03:34.494Z,35.42
2023-05-18T11:06:15.627Z,35.60
2023-05-18T11:09:04.446Z,36.27
2023-05-18T11:11:58.454Z,36.55
2023-05-18T11:14:36.441Z,37.04
2023-05-18T11:17:25.606Z,37.39
2023-05-18T11:20:18.432Z,37.67
2023-05-18T11:23:06.824Z,37.84
2023-05-18T11:25:39.171Z,38.40
2023-05-18T11:28:13.824Z,38.46
2023-05-18T11:30:50.442Z,37.90
2023-05-18T11:33:36.967Z,38.09
2023-05-18T11:36:18.165Z,38.08
2023-05-18T11:39:07.483Z,37.99
2023-05-18T11:41:42.126Z,37.81
2023-05-18T11:44:13.361Z,37.85
2023-05-18T11:47:00.247Z,38.19
2023-05-18T11:49:37.445Z,38.28
2023-05-18T11:52:16.654Z,38.58
2023-05-18T11:54:49.949Z,38.73
2023-05-18T11:57:45.090Z,38.71
2023-05-18T12:00:32.822Z,38.89
2023-05-18T12:03:06.503Z,38.83
2023-05-18T12:05:40.788Z,38.85
2023-05-18T12:08:12.886Z,39.37
2023-05-18T12:10:52.337Z,39.33
2023-05-18T12:13:28.403Z,39.65
2023-05-18T12:16:02.154Z,38.79
2023-05-18T12:18:38.053Z,38.67
2023-05-18T12:21:09.333Z,38.49
2023-05-18T12:23:41.865Z,38.33
2023-05-18T12:26:15.012Z,38.36
2023-05-18T12:28:58.273Z,38.35
2023-05-18T12:31:28.338Z,38.90
2023-05-18T12:34:03.814Z,39.42
2023-05-18T12:36:33.864Z,39.16
2023-05-18T12:39:03.318Z,38.45
2023-05-18T12:41:33.080Z,38.42
2023-05-18T12:44:02.685Z,38.43
2023-05-18T12:46:32.443Z,38.29
2023-05-18T12:49:02.085Z,38.29
2023-05-18T12:51:38.994Z,38.80
2023-05-18T12:54:08.796Z,38.50
2023-05-18T12:57:02.544Z,38.60
2023-05-18T12:59:32.183Z,38.35
2023-05-18T13:02:01.926Z,38.51
2023-05-18T13:04:38.115Z,38.56
2023-05-18T13:07:12.868Z,38.31
2023-05-18T13:09:47.123Z,38.15
2023-05-18T13:12:17.320Z,38.09
2023-05-18T13:14:50.808Z,38.28
2023-05-18T13:17:25.933Z,38.07
2023-05-18T13:19:58.820Z,38.21
2023-05-18T13:22:29.478Z,38.30
2023-05-18T13:25:02.658Z,38.60
2023-05-18T13:27:38.773Z,38.42
2023-05-18T13:30:09.399Z,38.55
2023-05-18T13:32:39.615Z,38.64
2023-05-18T13:35:10.329Z,38.37
2023-05-18T13:37:41.602Z,38.43
2023-05-18T13:40:11.408Z,38.55
2023-05-18T13:42:41.477Z,38.18
2023-05-18T13:45:15.184Z,37.81
2023-05-18T13:47:52.767Z,38.34
2023-05-18T13:50:30.945Z,38.36
2023-05-18T13:53:07.922Z,38.27
2023-05-18T13:55:49.481Z,37.33
2023-05-18T13:58:29.410Z,37.42
2023-05-18T14:01:06.628Z,37.98
2023-05-18T14:03:37.090Z,38.18
2023-05-18T14:06:10.791Z,38.15
2023-05-18T14:09:04.700Z,37.84
2023-05-18T14:11:38.847Z,37.64
2023-05-18T14:14:12.577Z,37.30
2023-05-18T14:16:53.289Z,37.40
2023-05-18T14:22:57.607Z,38.18
2023-05-18T14:25:38.142Z,38.18
2023-05-18T14:28:12.254Z,38.09
2023-05-18T14:30:46.121Z,38.10
2023-05-18T14:33:47.448Z,38.09
2023-05-18T14:36:21.829Z,38.26
2023-05-18T14:38:54.930Z,38.82
2023-05-18T14:42:13.993Z,39.06
2023-05-18T14:44:53.276Z,39.37
2023-05-18T14:47:40.937Z,38.71
2023-05-18T14:50:21.222Z,38.40
2023-05-18T14:53:06.072Z,38.14
2023-05-18T14:56:29.846Z,38.08
2023-05-18T14:59:27.073Z,38.02
2023-05-18T15:01:59.603Z,38.21
2023-05-18T15:04:33.075Z,38.32
2023-05-18T15:07:06.276Z,38.29
2023-05-18T15:09:41.528Z,38.34
2023-05-18T15:12:21.572Z,38.30
2023-05-18T15:14:56.999Z,38.25
2023-05-18T15:17:27.387Z,38.56
2023-05-18T15:19:58.655Z,38.87
2023-05-18T15:22:29.595Z,39.03
2023-05-18T15:25:07.698Z,39.03
2023-05-18T15:27:40.422Z,39.25
2023-05-18T15:30:13.483Z,39.29
2023-05-18T15:32:53.766Z,39.41
2023-05-18T15:35:39.215Z,39.75
2023-05-18T15:38:14.776Z,40.10
2023-05-18T15:41:14.643Z,40.58
2023-05-18T15:43:57.933Z,40.43
2023-05-18T15:46:36.905Z,40.58
2023-05-18T15:49:08.590Z,40.60
2023-05-18T15:51:38.700Z,40.80
2023-05-18T15:54:09.429Z,40.94
2023-05-18T15:56:40.241Z,40.69
2023-05-18T15:59:14.979Z,40.83
2023-05-18T16:02:00.141Z,40.92
2023-05-18T16:04:47.073Z,41.48
2023-05-18T16:07:45.940Z,41.47
2023-05-18T16:10:47.268Z,41.35
2023-05-18T16:13:27.616Z,41.30
2023-05-18T16:16:01.112Z,41.22
2023-05-18T16:18:33.534Z,41.31
2023-05-18T16:21:20.032Z,41.34
2023-05-18T16:23:57.676Z,41.42
2023-05-18T16:26:39.771Z,41.56
2023-05-18T16:29:10.818Z,41.54
2023-05-18T16:31:55.518Z,41.77
2023-05-18T16:34:31.877Z,41.81
2023-05-18T16:37:11.072Z,41.96
2023-05-18T16:39:49.638Z,42.08
2023-05-18T16:42:36.695Z,42.26
2023-05-18T16:45:10.066Z,42.46
2023-05-18T16:47:45.349Z,42.60
2023-05-18T16:50:20.128Z,42.75
2023-05-18T16:53:40.326Z,42.65
2023-05-18T16:56:45.853Z,42.97
2023-05-18T16:59:28.100Z,42.97
2023-05-18T17:02:01.878Z,43.05
2023-05-18T17:04:41.903Z,43.20
2023-05-18T17:07:21.190Z,43.20
2023-05-18T17:10:00.409Z,43.16
2023-05-18T17:12:37.201Z,43.30
2023-05-18T17:15:57.316Z,43.59
2023-05-18T17:18:31.985Z,43.92
2023-05-18T17:21:08.691Z,44.48
2023-05-18T17:23:53.559Z,44.99
2023-05-18T17:27:17.221Z,45.42
2023-05-18T17:30:04.536Z,45.59
2023-05-18T17:32:39.320Z,45.83
2023-05-18T17:35:26.387Z,46.28
2023-05-18T17:38:18.940Z,46.73
2023-05-18T17:40:56.933Z,47.03
2023-05-18T17:43:33.516Z,47.08
2023-05-18T17:46:13.035Z,47.37
2023-05-18T17:48:50.445Z,47.68
2023-05-18T17:51:32.020Z,47.79
2023-05-18T17:54:07.503Z,47.98
2023-05-18T17:57:00.826Z,48.03
2023-05-18T17:59:50.358Z,48.55
2023-05-18T18:02:44.899Z,48.57
2023-05-18T18:05:50.961Z,48.73
2023-05-18T18:08:35.602Z,49.07
2023-05-18T18:11:10.541Z,49.14
2023-05-18T18:14:41.917Z,49.40
2023-05-18T18:18:03.929Z,49.79
2023-05-18T18:24:16.384Z,50.22
2023-05-18T18:33:13.253Z,50.53
2023-05-18T18:35:11.470Z,50.88
2023-05-18T18:38:02.499Z,51.18
2023-05-18T18:40:43.503Z,51.37
2023-05-18T18:43:27.103Z,51.42
2023-05-18T18:46:30.934Z,51.92
2023-05-18T18:49:12.628Z,52.13
2023-05-18T18:52:03.021Z,52.41
2023-05-18T18:55:04.654Z,52.55
2023-05-18T18:57:42.192Z,52.74
2023-05-18T19:00:45.674Z,52.86
2023-05-18T19:03:53.353Z,52.91
2023-05-18T19:06:41.125Z,53.25
2023-05-18T19:09:33.341Z,53.41
2023-05-18T19:12:31.596Z,53.45
2023-05-18T19:15:27.346Z,53.53
2023-05-18T19:18:04.306Z,53.86
2023-05-18T19:20:54.128Z,54.08
2023-05-18T19:23:30.269Z,54.15
2023-05-18T19:26:02.556Z,54.28
2023-05-18T19:28:38.769Z,54.30
2023-05-18T19:31:29.028Z,54.36
2023-05-18T19:34:18.764Z,54.64
2023-05-18T19:36:54.880Z,54.79
2023-05-18T19:39:36.911Z,54.90
2023-05-18T19:45:36.934Z,55.17
2023-05-18T19:48:12.238Z,55.38
2023-05-18T19:50:50.498Z,55.49
2023-05-18T19:53:37.310Z,55.61
2023-05-18T19:56:15.440Z,55.82
2023-05-18T19:58:58.993Z,55.90
2023-05-18T20:14:05.071Z,56.50
2023-05-18T20:16:42.615Z,56.47
2023-05-18T20:19:20.046Z,56.50
2023-05-18T20:21:50.714Z,56.71
2023-05-18T20:24:28.388Z,56.74
2023-05-18T20:27:08.665Z,56.78
2023-05-18T20:29:59.407Z,56.87
2023-05-18T20:32:30.815Z,56.85
2023-05-18T20:35:03.989Z,56.85
2023-05-18T20:37:35.071Z,56.87
2023-05-18T20:40:09.687Z,57.14
2023-05-18T20:42:40.965Z,57.27
2023-05-18T20:45:18.115Z,57.19
2023-05-18T20:48:02.092Z,57.33
2023-05-18T20:50:33.909Z,57.39
2023-05-18T20:53:13.056Z,57.48
2023-05-18T20:55:50.520Z,57.69
2023-05-18T20:58:21.943Z,57.82
2023-05-18T21:00:56.695Z,58.01
2023-05-18T21:03:39.150Z,58.27
2023-05-18T21:06:13.254Z,58.53
2023-05-18T21:08:46.020Z,58.66
2023-05-18T21:11:16.555Z,58.96
2023-05-18T21:13:49.287Z,59.30
2023-05-18T21:16:19.607Z,59.52
2023-05-18T21:18:50.079Z,59.72
2023-05-18T21:21:21.188Z,59.89
2023-05-18T21:23:51.385Z,59.88
2023-05-18T21:26:22.259Z,59.81
2023-05-18T21:28:52.721Z,59.79
2023-05-18T21:31:22.958Z,59.90
2023-05-18T21:33:53.269Z,60.03
2023-05-18T21:36:35.885Z,60.07
2023-05-18T21:39:09.806Z,60.24
2023-05-18T21:41:40.816Z,60.39
2023-05-18T21:44:11.692Z,60.37
2023-05-18T21:46:41.714Z,60.73
2023-05-18T21:49:13.572Z,60.80
2023-05-18T21:51:43.998Z,60.93
2023-05-18T21:54:14.258Z,61.07
2023-05-18T21:56:44.724Z,61.19
2023-05-18T21:59:15.341Z,61.25
2023-05-18T22:01:45.593Z,61.35
2023-05-18T22:04:15.951Z,61.68
2023-05-18T22:06:47.735Z,61.82
2023-05-18T22:09:18.187Z,61.67
2023-05-18T22:11:48.137Z,61.82
2023-05-18T22:14:23.339Z,61.99
2023-05-18T22:16:53.849Z,62.07
2023-05-18T22:19:25.246Z,62.19
2023-05-18T22:21:55.940Z,62.16
2023-05-18T22:24:26.187Z,62.21
2023-05-18T22:26:56.827Z,62.39
2023-05-18T22:29:29.730Z,62.36
2023-05-18T22:32:00.281Z,62.46
2023-05-18T22:34:33.978Z,62.53
2023-05-18T22:37:13.741Z,62.58
2023-05-18T22:39:44.887Z,62.62
2023-05-18T22:42:15.283Z,62.65
2023-05-18T22:44:48.901Z,62.65
2023-05-18T22:47:21.940Z,62.74
2023-05-18T22:49:53.227Z,62.88
2023-05-18T22:52:35.642Z,63.08
2023-05-18T22:55:16.880Z,63.20
2023-05-18T22:57:47.703Z,63.39
2023-05-18T23:00:18.508Z,63.42
2023-05-18T23:02:48.444Z,63.58
2023-05-18T23:05:22.203Z,63.55
2023-05-18T23:07:52.677Z,63.66
2023-05-18T23:10:26.402Z,63.86
2023-05-18T23:13:02.346Z,63.78
2023-05-18T23:15:33.634Z,63.99
2023-05-18T23:18:09.615Z,64.02
2023-05-18T23:20:40.101Z,64.02
2023-05-18T23:23:15.018Z,64.27
2023-05-18T23:25:50.924Z,64.11
2023-05-18T23:28:21.474Z,64.02
2023-05-18T23:30:51.849Z,64.02
2023-05-18T23:33:22.176Z,63.76
2023-05-18T23:35:56.021Z,63.70
2023-05-18T23:38:35.232Z,63.58
2023-05-18T23:41:08.566Z,63.58
2023-05-18T23:43:40.022Z,63.66
2023-05-18T23:46:11.296Z,63.53
2023-05-18T23:48:50.777Z,63.67
2023-05-18T23:51:30.275Z,63.40
2023-05-18T23:54:01.528Z,63.38
2023-05-18T23:56:33.689Z,63.36
2023-05-18T23:59:04.507Z,63.26
